createdAt,value
2022-12-12T00:01:50.614Z,5.20
2022-12-12T00:04:18.327Z,5.37
2022-12-12T00:06:47.311Z,5.70
2022-12-12T00:09:14.941Z,6.10
2022-12-12T00:11:42.740Z,5.87
2022-12-12T00:14:10.407Z,5.20
2022-12-12T00:16:38.079Z,6.17
2022-12-12T00:19:05.749Z,6.20
2022-12-12T00:21:33.363Z,6.77
2022-12-12T00:24:02.355Z,6.70
2022-12-12T00:26:30.921Z,6.53
2022-12-12T00:28:58.949Z,7.13
2022-12-12T00:31:26.726Z,6.17
2022-12-12T00:33:54.470Z,9.10
2022-12-12T00:36:23.450Z,9.50
2022-12-12T00:38:51.783Z,9.33
2022-12-12T00:41:21.133Z,9.50
2022-12-12T00:43:49.043Z,9.03
2022-12-12T00:46:17.283Z,10.47
2022-12-12T00:48:45.344Z,11.07
2022-12-12T00:51:16.173Z,12.00
2022-12-12T00:53:43.780Z,12.33
2022-12-12T00:56:11.728Z,10.70
2022-12-12T00:58:40.733Z,9.93
2022-12-12T01:01:12.048Z,10.43
2022-12-12T01:03:41.263Z,10.03
2022-12-12T01:06:09.692Z,11.20
2022-12-12T01:08:37.339Z,10.73
2022-12-12T01:11:05.156Z,10.53
2022-12-12T01:13:32.865Z,11.70
2022-12-12T01:16:02.231Z,12.53
2022-12-12T01:18:29.999Z,12.27
2022-12-12T01:20:57.704Z,12.90
2022-12-12T01:23:25.390Z,9.80
2022-12-12T01:26:00.272Z,10.03
2022-12-12T01:28:27.936Z,10.27
2022-12-12T01:30:55.723Z,9.60
2022-12-12T01:33:24.895Z,9.73
2022-12-12T01:35:52.572Z,13.63
2022-12-12T01:38:20.365Z,12.97
2022-12-12T01:40:48.048Z,11.97
2022-12-12T01:43:16.711Z,11.37
2022-12-12T01:46:05.349Z,12.13
2022-12-12T01:48:37.777Z,12.07
2022-12-12T01:51:07.375Z,11.87
2022-12-12T01:53:35.565Z,12.00
2022-12-12T01:56:03.873Z,12.60
2022-12-12T01:58:31.826Z,11.13
2022-12-12T02:00:59.483Z,11.50
2022-12-12T02:03:27.450Z,13.10
2022-12-12T02:05:59.624Z,12.47
2022-12-12T02:08:27.485Z,12.03
2022-12-12T02:10:55.552Z,11.53
2022-12-12T02:13:24.672Z,14.10
2022-12-12T02:15:57.442Z,15.37
2022-12-12T02:18:29.987Z,14.40
2022-12-12T02:21:03.076Z,15.43
2022-12-12T02:23:51.945Z,15.03
2022-12-12T02:26:37.829Z,17.80
2022-12-12T02:29:25.874Z,15.93
2022-12-12T02:31:57.421Z,11.07
2022-12-12T02:34:29.959Z,15.60
2022-12-12T02:37:00.233Z,15.50
2022-12-12T02:39:29.652Z,13.53
2022-12-12T02:41:58.339Z,14.33
2022-12-12T02:44:28.402Z,13.57
2022-12-12T02:47:01.541Z,14.10
2022-12-12T02:49:32.296Z,14.20
2022-12-12T02:52:00.465Z,13.73
2022-12-12T02:54:28.285Z,12.80
2022-12-12T02:56:57.219Z,14.50
2022-12-12T02:59:29.885Z,11.97
2022-12-12T03:02:08.928Z,13.30
2022-12-12T03:05:00.288Z,11.10
2022-12-12T03:07:50.395Z,11.70
2022-12-12T03:10:23.663Z,11.03
2022-12-12T03:12:58.910Z,12.10
2022-12-12T03:15:27.774Z,11.17
2022-12-12T03:18:01.198Z,12.40
2022-12-12T03:20:32.836Z,12.20
2022-12-12T03:23:02.090Z,11.47
2022-12-12T03:25:33.173Z,11.80
2022-12-12T03:28:03.598Z,11.83
2022-12-12T03:30:33.538Z,11.87
2022-12-12T03:33:07.893Z,10.73
2022-12-12T03:35:37.342Z,12.03
2022-12-12T03:38:07.875Z,12.00
2022-12-12T03:40:40.764Z,12.03
2022-12-12T03:43:10.895Z,10.90
2022-12-12T03:45:40.671Z,11.10
2022-12-12T03:48:13.570Z,12.50
2022-12-12T03:50:44.023Z,12.20
2022-12-12T03:53:13.234Z,11.23
2022-12-12T03:55:43.804Z,11.73
2022-12-12T03:58:14.858Z,11.13
2022-12-12T04:00:43.709Z,12.70
2022-12-12T04:03:20.343Z,13.33
2022-12-12T04:06:11.600Z,12.07
2022-12-12T04:08:39.708Z,11.13
2022-12-12T04:11:25.878Z,10.27
2022-12-12T04:13:59.598Z,12.07
2022-12-12T04:16:31.564Z,12.67
2022-12-12T04:19:02.879Z,11.50
2022-12-12T04:21:52.367Z,13.43
2022-12-12T04:24:24.032Z,11.97
2022-12-12T04:26:54.799Z,12.23
2022-12-12T04:29:28.551Z,12.13
2022-12-12T04:31:59.562Z,11.90
2022-12-12T04:34:33.013Z,12.47
2022-12-12T04:37:01.652Z,12.50
2022-12-12T04:39:30.241Z,12.77
2022-12-12T04:41:58.645Z,12.80
2022-12-12T04:44:28.501Z,14.23
2022-12-12T04:46:57.085Z,13.03
2022-12-12T04:49:27.340Z,13.53
2022-12-12T04:52:00.851Z,13.27
2022-12-12T04:54:31.182Z,15.47
2022-12-12T04:57:01.054Z,14.63
2022-12-12T04:59:28.915Z,14.27
2022-12-12T05:02:00.081Z,13.23
2022-12-12T05:04:31.440Z,12.17
2022-12-12T05:07:02.981Z,14.23
2022-12-12T05:09:30.639Z,12.47
2022-12-12T05:11:59.975Z,14.03
2022-12-12T05:14:27.692Z,12.23
2022-12-12T05:16:57.624Z,13.83
2022-12-12T05:19:25.340Z,13.43
2022-12-12T05:21:52.954Z,15.30
2022-12-12T05:24:21.945Z,14.60
2022-12-12T05:26:49.726Z,16.23
2022-12-12T05:29:17.338Z,16.37
2022-12-12T05:31:45.018Z,19.07
2022-12-12T05:34:12.738Z,19.43
2022-12-12T05:36:40.342Z,19.37
2022-12-12T05:39:07.997Z,17.90
2022-12-12T05:41:37.058Z,17.57
2022-12-12T05:44:04.735Z,15.93
2022-12-12T05:46:32.705Z,17.87
2022-12-12T05:49:00.465Z,17.77
2022-12-12T05:51:28.143Z,17.60
2022-12-12T05:53:55.765Z,18.70
2022-12-12T05:56:23.473Z,17.40
2022-12-12T05:58:52.469Z,16.30
2022-12-12T06:01:20.158Z,17.27
2022-12-12T06:03:48.002Z,17.83
2022-12-12T06:06:15.656Z,18.33
2022-12-12T06:08:43.344Z,18.60
2022-12-12T06:11:11.383Z,18.40
2022-12-12T06:13:39.290Z,18.47
2022-12-12T06:16:09.468Z,17.07
2022-12-12T06:18:37.354Z,17.60
2022-12-12T06:21:05.690Z,17.30
2022-12-12T06:23:33.347Z,16.57
2022-12-12T06:26:01.075Z,17.60
2022-12-12T06:28:28.684Z,15.57
2022-12-12T06:30:56.340Z,18.07
2022-12-12T06:33:25.405Z,20.57
2022-12-12T06:36:00.317Z,22.43
2022-12-12T06:38:28.273Z,20.57
2022-12-12T06:40:55.887Z,21.93
2022-12-12T06:43:23.847Z,21.80
2022-12-12T06:45:51.578Z,21.30
2022-12-12T06:48:19.365Z,21.50
2022-12-12T06:50:48.591Z,20.90
2022-12-12T06:53:16.793Z,21.30
2022-12-12T06:55:44.817Z,21.93
2022-12-12T06:58:12.467Z,22.07
2022-12-12T07:00:40.156Z,22.93
2022-12-12T07:03:07.818Z,21.90
2022-12-12T07:05:35.564Z,25.63
2022-12-12T07:08:04.936Z,24.30
2022-12-12T07:10:33.531Z,23.27
2022-12-12T07:13:01.176Z,21.50
2022-12-12T07:15:28.846Z,24.00
2022-12-12T07:17:56.519Z,21.97
2022-12-12T07:20:24.740Z,21.00
2022-12-12T07:22:52.645Z,21.70
2022-12-12T07:25:21.680Z,19.93
2022-12-12T07:27:49.352Z,20.50
2022-12-12T07:30:17.290Z,17.97
2022-12-12T07:32:45.016Z,16.40
2022-12-12T07:35:12.963Z,17.27
2022-12-12T07:37:40.779Z,20.03
2022-12-12T07:40:08.953Z,20.90
2022-12-12T07:42:37.908Z,25.50
2022-12-12T07:45:05.933Z,23.03
2022-12-12T07:47:33.689Z,25.33
2022-12-12T07:50:01.413Z,21.43
2022-12-12T07:52:29.110Z,21.73
2022-12-12T07:54:56.866Z,19.30
2022-12-12T07:57:24.544Z,22.23
2022-12-12T07:59:53.565Z,24.50
2022-12-12T08:02:21.445Z,22.10
2022-12-12T08:04:49.087Z,22.00
2022-12-12T08:07:16.978Z,20.33
2022-12-12T08:09:44.680Z,20.13
2022-12-12T08:12:12.562Z,21.47
2022-12-12T08:14:40.452Z,22.63
2022-12-12T08:17:09.566Z,20.60
2022-12-12T08:19:37.176Z,24.17
2022-12-12T08:22:04.806Z,24.07
2022-12-12T08:24:32.566Z,26.33
2022-12-12T08:27:00.201Z,27.43
2022-12-12T08:29:27.825Z,29.63
2022-12-12T08:31:55.541Z,28.37
2022-12-12T08:34:24.636Z,27.27
2022-12-12T08:36:52.539Z,28.47
2022-12-12T08:39:20.292Z,26.70
2022-12-12T08:41:48.483Z,28.03
2022-12-12T08:44:16.853Z,27.17
2022-12-12T08:46:44.709Z,27.57
2022-12-12T08:49:12.749Z,26.67
2022-12-12T08:51:42.210Z,27.93
2022-12-12T08:54:11.682Z,24.97
2022-12-12T08:56:39.545Z,26.77
2022-12-12T08:59:07.348Z,23.73
2022-12-12T09:01:35.207Z,27.23
2022-12-12T09:04:02.930Z,26.37
2022-12-12T09:06:31.057Z,26.60
2022-12-12T09:09:00.300Z,27.13
2022-12-12T09:11:28.401Z,26.27
2022-12-12T09:13:56.025Z,28.27
2022-12-12T09:16:26.480Z,25.40
2022-12-12T09:18:54.260Z,28.17
2022-12-12T09:21:21.892Z,28.87
2022-12-12T09:23:49.666Z,28.23
2022-12-12T09:26:18.990Z,30.63
2022-12-12T09:28:46.617Z,30.80
2022-12-12T09:31:14.425Z,28.07
2022-12-12T09:33:43.008Z,29.00
2022-12-12T09:36:11.991Z,30.73
2022-12-12T09:38:39.683Z,31.00
2022-12-12T09:41:12.633Z,32.80
2022-12-12T09:43:45.372Z,33.17
2022-12-12T09:46:16.177Z,32.23
2022-12-12T09:48:44.994Z,31.13
2022-12-12T09:51:13.421Z,32.17
2022-12-12T09:53:41.724Z,30.97
2022-12-12T09:56:11.791Z,30.03
2022-12-12T09:58:48.156Z,31.17
2022-12-12T10:01:22.582Z,30.93
2022-12-12T10:03:54.160Z,31.67
2022-12-12T10:06:37.222Z,33.27
2022-12-12T10:09:10.198Z,30.30
2022-12-12T10:11:54.654Z,35.50
2022-12-12T10:14:26.351Z,34.70
2022-12-12T10:16:57.759Z,34.77
2022-12-12T10:19:27.887Z,33.00
2022-12-12T10:21:57.759Z,34.70
2022-12-12T10:24:28.961Z,32.27
2022-12-12T10:26:56.599Z,32.90
2022-12-12T10:29:26.290Z,30.80
2022-12-12T10:31:59.028Z,29.27
2022-12-12T10:34:33.201Z,33.10
2022-12-12T10:37:09.075Z,32.90
2022-12-12T10:39:42.039Z,36.07
2022-12-12T10:42:14.168Z,37.10
2022-12-12T10:44:58.763Z,38.27
2022-12-12T10:47:26.988Z,37.97
2022-12-12T10:49:56.332Z,36.73
2022-12-12T10:52:24.018Z,34.33
2022-12-12T10:54:53.056Z,37.33
2022-12-12T10:57:22.254Z,34.10
2022-12-12T10:59:53.470Z,33.27
2022-12-12T11:02:28.823Z,25.37
2022-12-12T11:05:05.008Z,29.93
2022-12-12T11:07:33.024Z,32.97
2022-12-12T11:10:02.529Z,29.07
2022-12-12T11:12:34.997Z,27.93
2022-12-12T11:15:07.224Z,28.70
2022-12-12T11:17:36.372Z,26.57
2022-12-12T11:20:07.663Z,26.67
2022-12-12T11:22:35.359Z,26.90
2022-12-12T11:25:03.172Z,28.53
2022-12-12T11:27:32.658Z,26.73
2022-12-12T11:30:01.722Z,27.60
2022-12-12T11:32:32.326Z,24.53
2022-12-12T11:35:22.584Z,26.93
2022-12-12T11:37:51.925Z,26.63
2022-12-12T11:40:23.798Z,26.67
2022-12-12T11:42:51.755Z,26.50
2022-12-12T11:45:23.836Z,26.97
2022-12-12T11:47:51.525Z,29.17
2022-12-12T11:50:22.357Z,26.73
2022-12-12T11:52:50.536Z,27.00
2022-12-12T11:55:19.633Z,24.67
2022-12-12T11:58:03.668Z,26.83
2022-12-12T12:00:35.763Z,29.40
2022-12-12T12:03:22.581Z,29.87
2022-12-12T12:05:58.836Z,29.97
2022-12-12T12:08:35.313Z,33.00
2022-12-12T12:11:11.692Z,29.77
2022-12-12T12:13:50.027Z,30.80
2022-12-12T12:16:23.542Z,30.03
2022-12-12T12:18:57.658Z,28.40
2022-12-12T12:21:30.902Z,27.80
2022-12-12T12:24:02.795Z,27.23
2022-12-12T12:26:34.811Z,25.33
2022-12-12T12:29:17.267Z,25.57
2022-12-12T12:31:50.096Z,21.47
2022-12-12T12:34:21.384Z,25.63
2022-12-12T12:36:57.823Z,25.07
2022-12-12T12:39:32.749Z,24.77
2022-12-12T12:42:07.565Z,24.83
2022-12-12T12:44:44.436Z,25.67
2022-12-12T12:47:21.951Z,23.10
2022-12-12T12:49:52.353Z,24.23
2022-12-12T12:52:23.808Z,25.80
2022-12-12T12:54:52.755Z,22.63
2022-12-12T12:57:22.892Z,22.63
2022-12-12T12:59:51.909Z,23.87
2022-12-12T13:02:27.056Z,25.80
2022-12-12T13:04:58.343Z,26.67
2022-12-12T13:07:30.008Z,24.23
2022-12-12T13:10:01.498Z,24.33
2022-12-12T13:12:30.819Z,25.40
2022-12-12T13:15:02.052Z,24.53
2022-12-12T13:17:42.349Z,26.07
2022-12-12T13:20:16.717Z,27.57
2022-12-12T13:22:50.242Z,27.00
2022-12-12T13:25:21.991Z,26.90
2022-12-12T13:27:52.297Z,28.07
2022-12-12T13:30:22.663Z,26.97
2022-12-12T13:33:05.457Z,25.60
2022-12-12T13:35:35.361Z,26.87
2022-12-12T13:38:05.398Z,28.77
2022-12-12T13:40:34.942Z,30.03
2022-12-12T13:43:09.414Z,22.73
2022-12-12T13:45:39.500Z,23.30
2022-12-12T13:48:10.700Z,23.23
2022-12-12T13:50:38.392Z,24.03
2022-12-12T13:53:21.414Z,25.63
2022-12-12T13:55:49.237Z,28.07
2022-12-12T13:58:22.099Z,26.47
2022-12-12T14:00:49.827Z,27.00
2022-12-12T14:03:25.079Z,23.50
2022-12-12T14:05:53.666Z,27.30
2022-12-12T14:08:24.942Z,19.53
2022-12-12T14:10:55.657Z,19.17
2022-12-12T14:13:30.096Z,20.23
2022-12-12T14:16:03.996Z,24.00
2022-12-12T14:18:32.816Z,24.57
2022-12-12T14:21:03.408Z,25.67
2022-12-12T14:23:33.370Z,22.43
2022-12-12T14:26:01.454Z,21.87
2022-12-12T14:28:29.737Z,17.57
2022-12-12T14:31:04.072Z,28.97
2022-12-12T14:33:50.562Z,28.33
2022-12-12T14:36:32.249Z,32.43
2022-12-12T14:39:06.517Z,32.23
2022-12-12T14:41:36.764Z,35.67
2022-12-12T14:44:38.055Z,30.13
2022-12-12T14:46:54.153Z,29.13
2022-12-12T14:49:21.818Z,26.90
2022-12-12T14:51:51.906Z,26.20
2022-12-12T14:54:21.599Z,28.00
2022-12-12T14:56:52.998Z,27.40
2022-12-12T14:59:23.092Z,24.60
2022-12-12T15:01:52.084Z,26.03
2022-12-12T15:04:21.174Z,23.00
2022-12-12T15:06:51.225Z,24.27
2022-12-12T15:09:24.606Z,24.73
2022-12-12T15:11:53.786Z,22.73
2022-12-12T15:14:24.094Z,24.23
2022-12-12T15:16:53.854Z,24.10
2022-12-12T15:19:25.122Z,23.30
2022-12-12T15:21:52.891Z,24.33
2022-12-12T15:24:23.353Z,38.53
2022-12-12T15:26:52.179Z,34.80
2022-12-12T15:29:21.557Z,36.10
2022-12-12T15:31:52.719Z,40.37
2022-12-12T15:34:30.604Z,32.83
2022-12-12T15:37:10.057Z,34.53
2022-12-12T15:39:39.285Z,34.23
2022-12-12T15:42:07.769Z,34.57
2022-12-12T15:44:35.566Z,36.43
2022-12-12T15:47:03.411Z,38.10
2022-12-12T15:49:38.592Z,37.30
2022-12-12T15:52:10.309Z,18.33
2022-12-12T15:54:45.917Z,18.00
2022-12-12T15:57:15.928Z,16.93
2022-12-12T15:59:44.180Z,15.63
2022-12-12T16:02:29.721Z,14.33
2022-12-12T16:05:05.847Z,15.73
2022-12-12T16:07:37.639Z,13.23
2022-12-12T16:10:20.537Z,11.47
2022-12-12T16:12:59.578Z,9.60
2022-12-12T16:15:30.145Z,9.93
2022-12-12T16:18:02.136Z,11.23
2022-12-12T16:20:30.847Z,10.47
2022-12-12T16:23:09.408Z,10.37
2022-12-12T16:25:39.439Z,9.50
2022-12-12T16:28:24.708Z,8.93
2022-12-12T16:30:54.895Z,7.30
2022-12-12T16:33:25.799Z,7.83
2022-12-12T16:35:53.543Z,6.60
2022-12-12T16:38:21.401Z,6.70
2022-12-12T16:40:51.447Z,6.13
2022-12-12T16:43:20.332Z,6.83
2022-12-12T16:45:49.971Z,6.80
2022-12-12T16:48:18.862Z,7.27
2022-12-12T16:50:47.272Z,6.87
2022-12-12T16:53:15.212Z,8.17
2022-12-12T16:55:44.040Z,7.60
2022-12-12T16:58:13.114Z,8.63
2022-12-12T17:00:41.174Z,8.13
2022-12-12T17:03:08.967Z,7.70
2022-12-12T17:05:38.671Z,6.57
2022-12-12T17:08:06.387Z,6.23
2022-12-12T17:10:34.920Z,6.57
2022-12-12T17:13:04.668Z,6.43
2022-12-12T17:15:33.839Z,6.73
2022-12-12T17:18:01.976Z,7.47
2022-12-12T17:20:37.254Z,9.27
2022-12-12T17:25:50.685Z,6.77
2022-12-12T17:28:19.676Z,8.10
2022-12-12T17:30:49.934Z,7.60
2022-12-12T17:33:17.695Z,6.50
2022-12-12T17:35:45.469Z,5.73
2022-12-12T17:38:16.438Z,5.50
2022-12-12T17:40:44.418Z,4.77
2022-12-12T17:43:12.124Z,4.50
2022-12-12T17:45:39.927Z,5.10
2022-12-12T17:48:09.051Z,4.67
2022-12-12T17:50:49.270Z,4.10
2022-12-12T17:53:17.007Z,5.70
2022-12-12T17:55:54.358Z,4.43
2022-12-12T17:58:30.008Z,3.60
2022-12-12T18:00:57.880Z,3.50
2022-12-12T18:03:26.992Z,3.53
2022-12-12T18:05:54.686Z,4.07
2022-12-12T18:08:22.514Z,2.27
2022-12-12T18:10:50.711Z,3.37
2022-12-12T18:13:18.378Z,3.40
2022-12-12T18:15:46.020Z,3.50
2022-12-12T18:18:13.791Z,4.00
2022-12-12T18:20:43.196Z,4.03
2022-12-12T18:23:10.839Z,3.80
2022-12-12T18:25:38.930Z,3.87
2022-12-12T18:28:06.739Z,4.00
2022-12-12T18:30:35.083Z,4.00
2022-12-12T18:33:03.304Z,4.63
2022-12-12T18:35:31.045Z,4.33
2022-12-12T18:38:00.155Z,4.50
2022-12-12T18:40:28.142Z,4.53
2022-12-12T18:42:55.826Z,4.33
2022-12-12T18:45:24.080Z,4.80
2022-12-12T18:47:51.840Z,3.93
2022-12-12T18:50:19.570Z,4.60
2022-12-12T18:52:47.555Z,4.20
2022-12-12T18:55:16.665Z,4.90
2022-12-12T18:57:45.133Z,5.97
2022-12-12T19:00:13.542Z,4.97
2022-12-12T19:02:41.508Z,5.17
2022-12-12T19:05:13.345Z,5.10
2022-12-12T19:07:41.053Z,5.13
2022-12-12T19:10:09.497Z,5.73
2022-12-12T19:12:38.996Z,6.87
2022-12-12T19:15:22.247Z,6.50
2022-12-12T19:17:50.487Z,6.07
2022-12-12T19:20:18.324Z,4.90
2022-12-12T19:22:46.929Z,5.00
2022-12-12T19:25:17.391Z,4.03
2022-12-12T19:27:46.421Z,4.13
2022-12-12T19:30:15.613Z,5.00
2022-12-12T19:32:43.812Z,4.07
2022-12-12T19:35:11.425Z,5.07
2022-12-12T19:37:39.077Z,3.87
2022-12-12T19:40:07.354Z,4.37
2022-12-12T19:42:35.037Z,4.40
2022-12-12T19:45:04.600Z,4.93
2022-12-12T19:47:33.067Z,4.13
2022-12-12T19:50:00.794Z,4.37
2022-12-12T19:52:28.452Z,4.23
2022-12-12T19:54:56.112Z,4.60
2022-12-12T19:57:26.305Z,4.23
2022-12-12T19:59:54.269Z,4.60
2022-12-12T20:02:23.476Z,4.40
2022-12-12T20:04:51.099Z,4.70
2022-12-12T20:07:18.800Z,4.10
2022-12-12T20:09:46.524Z,4.83
2022-12-12T20:12:14.203Z,4.50
2022-12-12T20:14:41.905Z,4.97
2022-12-12T20:17:10.949Z,3.87
2022-12-12T20:19:39.986Z,5.03
2022-12-12T20:22:07.647Z,5.30
2022-12-12T20:24:37.109Z,4.70
2022-12-12T20:27:04.844Z,4.90
2022-12-12T20:29:32.585Z,4.70
2022-12-12T20:32:01.536Z,4.77
2022-12-12T20:34:29.414Z,6.27
2022-12-12T20:36:58.884Z,7.23
2022-12-12T20:39:26.917Z,6.20
2022-12-12T20:41:54.710Z,6.23
2022-12-12T20:44:23.403Z,5.70
2022-12-12T20:46:51.528Z,6.83
2022-12-12T20:49:20.133Z,6.53
2022-12-12T20:51:56.993Z,6.50
2022-12-12T20:54:28.512Z,7.37
2022-12-12T20:56:56.499Z,6.73
2022-12-12T20:59:24.718Z,7.70
2022-12-12T21:01:52.936Z,8.43
2022-12-12T21:04:20.855Z,6.33
2022-12-12T21:06:49.856Z,8.37
2022-12-12T21:09:23.879Z,7.43
2022-12-12T21:11:54.329Z,8.17
2022-12-12T21:14:22.747Z,7.90
2022-12-12T21:16:50.416Z,8.23
2022-12-12T21:19:18.972Z,8.10
2022-12-12T21:21:47.217Z,7.77
2022-12-12T21:24:15.339Z,7.70
2022-12-12T21:26:42.983Z,7.40
2022-12-12T21:29:12.059Z,8.00
2022-12-12T21:31:46.586Z,6.57
2022-12-12T21:34:18.717Z,6.20
2022-12-12T21:36:46.387Z,6.33
2022-12-12T21:39:14.516Z,5.57
2022-12-12T21:41:44.142Z,6.20
2022-12-12T21:44:13.206Z,6.87
2022-12-12T21:46:43.264Z,5.13
2022-12-12T21:49:31.177Z,4.27
2022-12-12T21:51:59.875Z,5.23
2022-12-12T21:54:29.152Z,5.00
2022-12-12T21:56:57.257Z,5.13
2022-12-12T21:59:26.433Z,5.13
2022-12-12T22:01:55.028Z,3.67
2022-12-12T22:04:22.883Z,3.27
2022-12-12T22:06:50.748Z,4.87
2022-12-12T22:09:18.550Z,4.07
2022-12-12T22:11:49.300Z,4.37
2022-12-12T22:14:18.044Z,4.30
2022-12-12T22:16:47.249Z,5.13
2022-12-12T22:19:16.048Z,4.20
2022-12-12T22:21:45.221Z,3.70
2022-12-12T22:24:12.886Z,4.67
2022-12-12T22:26:41.481Z,4.27
2022-12-12T22:29:10.970Z,4.60
2022-12-12T22:31:39.380Z,4.50
2022-12-12T22:34:08.962Z,4.87
2022-12-12T22:36:37.437Z,4.20
2022-12-12T22:39:05.914Z,4.80
2022-12-12T22:41:33.790Z,4.63
2022-12-12T22:44:03.645Z,4.60
2022-12-12T22:46:31.520Z,5.03
2022-12-12T22:49:00.243Z,4.83
2022-12-12T22:51:30.011Z,4.37
2022-12-12T22:53:57.981Z,4.77
2022-12-12T22:56:25.980Z,4.73
2022-12-12T22:58:53.741Z,4.03
2022-12-12T23:01:22.159Z,4.20
2022-12-12T23:03:50.167Z,4.03
2022-12-12T23:06:19.327Z,4.70
2022-12-12T23:08:51.876Z,4.17
2022-12-12T23:11:20.685Z,4.63
2022-12-12T23:13:48.555Z,3.83
2022-12-12T23:16:17.696Z,4.60
2022-12-12T23:18:45.854Z,4.87
2022-12-12T23:21:16.908Z,5.13
2022-12-12T23:23:45.224Z,5.00
2022-12-12T23:26:15.237Z,3.80
2022-12-12T23:28:42.995Z,3.97
2022-12-12T23:31:11.281Z,5.80
2022-12-12T23:33:39.429Z,3.57
2022-12-12T23:36:09.008Z,4.40
2022-12-12T23:38:38.065Z,4.07
2022-12-12T23:41:05.831Z,4.20
2022-12-12T23:43:35.008Z,4.63
2022-12-12T23:46:03.700Z,3.90
2022-12-12T23:48:31.580Z,4.63
2022-12-12T23:50:59.341Z,4.33
2022-12-12T23:53:27.332Z,4.63
2022-12-12T23:55:55.057Z,4.27
2022-12-12T23:58:22.746Z,5.13
